sensor_id;sensor_type;location;lat;lon;timestamp;P1;durP1;ratioP1;P2;durP2;ratioP2
71639;SDS011;60912;48.968;10.124;2023-08-08T00:01:01;4.32;;;1.58;;
71639;SDS011;60912;48.968;10.124;2023-08-08T00:03:27;4.55;;;1.90;;
71639;SDS011;60912;48.968;10.124;2023-08-08T00:05:52;4.90;;;1.63;;
71639;SDS011;60912;48.968;10.124;2023-08-08T00:08:21;3.95;;;1.30;;
71639;SDS011;60912;48.968;10.124;2023-08-08T00:10:49;3.78;;;1.30;;
71639;SDS011;60912;48.968;10.124;2023-08-08T00:13:24;4.00;;;1.30;;
71639;SDS011;60912;48.968;10.124;2023-08-08T00:16:03;4.28;;;1.52;;
71639;SDS011;60912;48.968;10.124;2023-08-08T00:18:31;3.58;;;1.40;;
71639;SDS011;60912;48.968;10.124;2023-08-08T00:21:07;3.63;;;1.63;;
71639;SDS011;60912;48.968;10.124;2023-08-08T00:24:08;6.13;;;1.52;;
71639;SDS011;60912;48.968;10.124;2023-08-08T00:26:41;4.10;;;1.70;;
71639;SDS011;60912;48.968;10.124;2023-08-08T00:29:25;3.08;;;1.55;;
71639;SDS011;60912;48.968;10.124;2023-08-08T00:31:50;3.00;;;1.50;;
71639;SDS011;60912;48.968;10.124;2023-08-08T00:34:21;3.00;;;1.20;;
71639;SDS011;60912;48.968;10.124;2023-08-08T00:36:49;4.80;;;1.70;;
71639;SDS011;60912;48.968;10.124;2023-08-08T00:39:15;4.95;;;1.63;;
71639;SDS011;60912;48.968;10.124;2023-08-08T00:41:40;3.67;;;1.43;;
71639;SDS011;60912;48.968;10.124;2023-08-08T00:44:20;3.17;;;1.73;;
71639;SDS011;60912;48.968;10.124;2023-08-08T00:46:46;6.30;;;1.60;;
71639;SDS011;60912;48.968;10.124;2023-08-08T00:49:15;5.43;;;1.65;;
71639;SDS011;60912;48.968;10.124;2023-08-08T00:51:48;7.15;;;1.67;;
71639;SDS011;60912;48.968;10.124;2023-08-08T00:54:14;3.53;;;1.50;;
71639;SDS011;60912;48.968;10.124;2023-08-08T00:56:40;4.97;;;1.60;;
71639;SDS011;60912;48.968;10.124;2023-08-08T00:59:12;3.15;;;1.40;;
71639;SDS011;60912;48.968;10.124;2023-08-08T01:01:39;4.60;;;1.40;;
71639;SDS011;60912;48.968;10.124;2023-08-08T01:04:13;3.08;;;1.30;;
71639;SDS011;60912;48.968;10.124;2023-08-08T01:06:49;4.78;;;1.40;;
71639;SDS011;60912;48.968;10.124;2023-08-08T01:09:33;3.90;;;1.35;;
71639;SDS011;60912;48.968;10.124;2023-08-08T01:12:04;3.75;;;1.50;;
71639;SDS011;60912;48.968;10.124;2023-08-08T01:14:38;3.20;;;1.27;;
71639;SDS011;60912;48.968;10.124;2023-08-08T01:17:07;4.78;;;1.83;;
71639;SDS011;60912;48.968;10.124;2023-08-08T01:19:36;2.97;;;1.30;;
71639;SDS011;60912;48.968;10.124;2023-08-08T01:22:14;6.53;;;1.50;;
71639;SDS011;60912;48.968;10.124;2023-08-08T01:24:47;3.97;;;1.65;;
71639;SDS011;60912;48.968;10.124;2023-08-08T01:27:33;2.93;;;1.30;;
71639;SDS011;60912;48.968;10.124;2023-08-08T01:30:02;4.65;;;1.40;;
71639;SDS011;60912;48.968;10.124;2023-08-08T01:32:37;5.35;;;1.38;;
71639;SDS011;60912;48.968;10.124;2023-08-08T01:35:02;4.83;;;1.47;;
71639;SDS011;60912;48.968;10.124;2023-08-08T01:37:41;4.20;;;1.55;;
71639;SDS011;60912;48.968;10.124;2023-08-08T01:40:15;2.78;;;1.40;;
71639;SDS011;60912;48.968;10.124;2023-08-08T01:42:45;2.78;;;1.13;;
71639;SDS011;60912;48.968;10.124;2023-08-08T01:45:13;2.65;;;1.30;;
71639;SDS011;60912;48.968;10.124;2023-08-08T01:47:41;3.00;;;1.13;;
71639;SDS011;60912;48.968;10.124;2023-08-08T01:50:07;4.10;;;1.60;;
71639;SDS011;60912;48.968;10.124;2023-08-08T01:52:34;4.53;;;1.20;;
71639;SDS011;60912;48.968;10.124;2023-08-08T01:55:02;3.65;;;1.38;;
71639;SDS011;60912;48.968;10.124;2023-08-08T01:57:34;2.93;;;1.40;;
71639;SDS011;60912;48.968;10.124;2023-08-08T01:59:59;3.00;;;1.40;;
71639;SDS011;60912;48.968;10.124;2023-08-08T02:02:27;3.25;;;1.50;;
71639;SDS011;60912;48.968;10.124;2023-08-08T02:04:59;3.60;;;1.50;;
71639;SDS011;60912;48.968;10.124;2023-08-08T02:07:24;2.50;;;1.23;;
71639;SDS011;60912;48.968;10.124;2023-08-08T02:10:01;5.35;;;1.35;;
71639;SDS011;60912;48.968;10.124;2023-08-08T02:12:40;3.08;;;1.33;;
71639;SDS011;60912;48.968;10.124;2023-08-08T02:15:08;2.27;;;1.20;;
71639;SDS011;60912;48.968;10.124;2023-08-08T02:17:52;3.00;;;1.33;;
71639;SDS011;60912;48.968;10.124;2023-08-08T02:20:20;3.10;;;1.30;;
71639;SDS011;60912;48.968;10.124;2023-08-08T02:22:54;3.80;;;1.50;;
71639;SDS011;60912;48.968;10.124;2023-08-08T02:25:20;5.90;;;1.37;;
71639;SDS011;60912;48.968;10.124;2023-08-08T02:27:48;3.25;;;1.20;;
71639;SDS011;60912;48.968;10.124;2023-08-08T02:30:20;4.30;;;1.33;;
71639;SDS011;60912;48.968;10.124;2023-08-08T02:32:48;3.25;;;1.20;;
71639;SDS011;60912;48.968;10.124;2023-08-08T02:35:13;5.30;;;1.50;;
71639;SDS011;60912;48.968;10.124;2023-08-08T02:37:44;4.30;;;1.50;;
71639;SDS011;60912;48.968;10.124;2023-08-08T02:40:13;3.60;;;1.60;;
71639;SDS011;60912;48.968;10.124;2023-08-08T02:42:38;3.10;;;1.30;;
71639;SDS011;60912;48.968;10.124;2023-08-08T02:45:04;4.37;;;1.40;;
71639;SDS011;60912;48.968;10.124;2023-08-08T02:47:30;3.38;;;1.30;;
71639;SDS011;60912;48.968;10.124;2023-08-08T02:50:16;5.88;;;1.45;;
71639;SDS011;60912;48.968;10.124;2023-08-08T02:52:51;3.97;;;1.30;;
71639;SDS011;60912;48.968;10.124;2023-08-08T02:55:20;3.20;;;1.40;;
71639;SDS011;60912;48.968;10.124;2023-08-08T02:57:48;4.38;;;1.63;;
71639;SDS011;60912;48.968;10.124;2023-08-08T03:00:13;3.47;;;1.40;;
71639;SDS011;60912;48.968;10.124;2023-08-08T03:02:47;4.17;;;1.27;;
71639;SDS011;60912;48.968;10.124;2023-08-08T03:05:13;5.30;;;1.65;;
71639;SDS011;60912;48.968;10.124;2023-08-08T03:07:45;4.15;;;1.40;;
71639;SDS011;60912;48.968;10.124;2023-08-08T03:10:13;4.00;;;1.40;;
71639;SDS011;60912;48.968;10.124;2023-08-08T03:12:55;4.53;;;1.55;;
71639;SDS011;60912;48.968;10.124;2023-08-08T03:15:29;4.18;;;1.58;;
71639;SDS011;60912;48.968;10.124;2023-08-08T03:17:57;2.70;;;1.20;;
71639;SDS011;60912;48.968;10.124;2023-08-08T03:20:25;4.25;;;1.30;;
71639;SDS011;60912;48.968;10.124;2023-08-08T03:22:56;4.05;;;1.38;;
71639;SDS011;60912;48.968;10.124;2023-08-08T03:28:35;2.90;;;1.25;;
71639;SDS011;60912;48.968;10.124;2023-08-08T03:31:23;3.73;;;1.50;;
71639;SDS011;60912;48.968;10.124;2023-08-08T03:33:53;5.55;;;1.30;;
71639;SDS011;60912;48.968;10.124;2023-08-08T03:36:27;4.13;;;1.45;;
71639;SDS011;60912;48.968;10.124;2023-08-08T03:38:53;3.88;;;1.50;;
71639;SDS011;60912;48.968;10.124;2023-08-08T03:41:23;2.78;;;1.30;;
71639;SDS011;60912;48.968;10.124;2023-08-08T03:43:54;2.80;;;1.40;;
71639;SDS011;60912;48.968;10.124;2023-08-08T03:46:21;3.05;;;1.40;;
71639;SDS011;60912;48.968;10.124;2023-08-08T03:48:47;3.63;;;1.30;;
71639;SDS011;60912;48.968;10.124;2023-08-08T03:51:24;5.50;;;1.42;;
71639;SDS011;60912;48.968;10.124;2023-08-08T03:54:00;2.90;;;1.40;;
71639;SDS011;60912;48.968;10.124;2023-08-08T03:56:25;2.55;;;1.40;;
71639;SDS011;60912;48.968;10.124;2023-08-08T03:58:52;4.45;;;1.30;;
71639;SDS011;60912;48.968;10.124;2023-08-08T04:01:21;3.38;;;1.35;;
71639;SDS011;60912;48.968;10.124;2023-08-08T04:03:47;4.30;;;1.70;;
71639;SDS011;60912;48.968;10.124;2023-08-08T04:06:12;3.77;;;1.60;;
71639;SDS011;60912;48.968;10.124;2023-08-08T04:08:38;5.50;;;1.70;;
71639;SDS011;60912;48.968;10.124;2023-08-08T04:11:06;5.20;;;1.50;;
71639;SDS011;60912;48.968;10.124;2023-08-08T04:13:31;4.97;;;1.42;;
71639;SDS011;60912;48.968;10.124;2023-08-08T04:16:00;4.47;;;1.30;;
71639;SDS011;60912;48.968;10.124;2023-08-08T04:18:28;4.32;;;1.80;;
71639;SDS011;60912;48.968;10.124;2023-08-08T04:20:54;4.57;;;1.67;;
71639;SDS011;60912;48.968;10.124;2023-08-08T04:23:24;4.95;;;1.60;;
71639;SDS011;60912;48.968;10.124;2023-08-08T04:25:51;4.70;;;1.63;;
71639;SDS011;60912;48.968;10.124;2023-08-08T04:28:22;5.95;;;1.60;;
71639;SDS011;60912;48.968;10.124;2023-08-08T04:30:47;4.72;;;1.40;;
71639;SDS011;60912;48.968;10.124;2023-08-08T04:33:16;3.65;;;1.35;;
71639;SDS011;60912;48.968;10.124;2023-08-08T04:35:47;3.63;;;1.48;;
71639;SDS011;60912;48.968;10.124;2023-08-08T04:38:15;5.00;;;1.43;;
71639;SDS011;60912;48.968;10.124;2023-08-08T04:40:43;3.83;;;1.52;;
71639;SDS011;60912;48.968;10.124;2023-08-08T04:43:27;2.85;;;1.30;;
71639;SDS011;60912;48.968;10.124;2023-08-08T04:45:56;2.90;;;1.38;;
71639;SDS011;60912;48.968;10.124;2023-08-08T04:48:29;6.07;;;1.52;;
71639;SDS011;60912;48.968;10.124;2023-08-08T04:50:54;3.93;;;1.47;;
71639;SDS011;60912;48.968;10.124;2023-08-08T04:53:36;3.03;;;1.30;;
71639;SDS011;60912;48.968;10.124;2023-08-08T04:56:13;3.83;;;1.40;;
71639;SDS011;60912;48.968;10.124;2023-08-08T04:58:47;3.77;;;1.43;;
71639;SDS011;60912;48.968;10.124;2023-08-08T05:01:21;4.70;;;1.60;;
71639;SDS011;60912;48.968;10.124;2023-08-08T05:03:57;4.30;;;1.50;;
71639;SDS011;60912;48.968;10.124;2023-08-08T05:06:31;3.80;;;1.50;;
71639;SDS011;60912;48.968;10.124;2023-08-08T05:09:12;5.20;;;1.50;;
71639;SDS011;60912;48.968;10.124;2023-08-08T05:11:48;2.83;;;1.30;;
71639;SDS011;60912;48.968;10.124;2023-08-08T05:14:38;4.25;;;1.60;;
71639;SDS011;60912;48.968;10.124;2023-08-08T05:17:09;5.40;;;1.50;;
71639;SDS011;60912;48.968;10.124;2023-08-08T05:20:04;3.93;;;1.30;;
71639;SDS011;60912;48.968;10.124;2023-08-08T05:22:34;4.10;;;1.50;;
71639;SDS011;60912;48.968;10.124;2023-08-08T05:24:59;5.13;;;1.60;;
71639;SDS011;60912;48.968;10.124;2023-08-08T05:27:25;6.23;;;1.63;;
71639;SDS011;60912;48.968;10.124;2023-08-08T05:29:51;5.45;;;1.63;;
71639;SDS011;60912;48.968;10.124;2023-08-08T05:32:25;3.80;;;1.50;;
71639;SDS011;60912;48.968;10.124;2023-08-08T05:34:56;3.15;;;1.40;;
71639;SDS011;60912;48.968;10.124;2023-08-08T05:37:31;5.78;;;1.70;;
71639;SDS011;60912;48.968;10.124;2023-08-08T05:39:59;5.03;;;1.70;;
71639;SDS011;60912;48.968;10.124;2023-08-08T05:42:31;3.08;;;1.60;;
71639;SDS011;60912;48.968;10.124;2023-08-08T05:44:56;4.47;;;1.47;;
71639;SDS011;60912;48.968;10.124;2023-08-08T05:47:28;4.28;;;1.60;;
71639;SDS011;60912;48.968;10.124;2023-08-08T05:49:53;4.72;;;1.48;;
71639;SDS011;60912;48.968;10.124;2023-08-08T05:52:24;3.60;;;1.50;;
71639;SDS011;60912;48.968;10.124;2023-08-08T05:54:50;2.60;;;1.37;;
71639;SDS011;60912;48.968;10.124;2023-08-08T05:57:17;5.57;;;1.95;;
71639;SDS011;60912;48.968;10.124;2023-08-08T05:59:49;3.13;;;1.40;;
71639;SDS011;60912;48.968;10.124;2023-08-08T06:02:15;3.75;;;1.50;;
71639;SDS011;60912;48.968;10.124;2023-08-08T06:04:40;5.10;;;1.50;;
71639;SDS011;60912;48.968;10.124;2023-08-08T06:07:16;4.15;;;1.35;;
71639;SDS011;60912;48.968;10.124;2023-08-08T06:09:44;4.50;;;1.40;;
71639;SDS011;60912;48.968;10.124;2023-08-08T06:12:18;3.67;;;1.50;;
71639;SDS011;60912;48.968;10.124;2023-08-08T06:14:46;3.40;;;1.50;;
71639;SDS011;60912;48.968;10.124;2023-08-08T06:17:15;2.80;;;1.20;;
71639;SDS011;60912;48.968;10.124;2023-08-08T06:19:40;4.53;;;1.50;;
71639;SDS011;60912;48.968;10.124;2023-08-08T06:22:09;4.43;;;1.35;;
71639;SDS011;60912;48.968;10.124;2023-08-08T06:24:37;2.50;;;1.23;;
71639;SDS011;60912;48.968;10.124;2023-08-08T06:27:12;2.95;;;1.27;;
71639;SDS011;60912;48.968;10.124;2023-08-08T06:30:10;3.28;;;1.20;;
71639;SDS011;60912;48.968;10.124;2023-08-08T06:32:42;4.00;;;1.40;;
71639;SDS011;60912;48.968;10.124;2023-08-08T06:35:08;2.45;;;1.20;;
71639;SDS011;60912;48.968;10.124;2023-08-08T06:37:39;2.47;;;1.10;;
71639;SDS011;60912;48.968;10.124;2023-08-08T06:40:04;3.30;;;1.38;;
71639;SDS011;60912;48.968;10.124;2023-08-08T06:42:39;5.85;;;1.50;;
71639;SDS011;60912;48.968;10.124;2023-08-08T06:45:07;2.63;;;1.20;;
71639;SDS011;60912;48.968;10.124;2023-08-08T06:47:34;4.25;;;1.50;;
71639;SDS011;60912;48.968;10.124;2023-08-08T06:50:03;4.47;;;1.27;;
71639;SDS011;60912;48.968;10.124;2023-08-08T06:52:37;3.00;;;1.20;;
71639;SDS011;60912;48.968;10.124;2023-08-08T06:55:06;4.28;;;1.50;;
71639;SDS011;60912;48.968;10.124;2023-08-08T06:57:43;3.13;;;1.30;;
71639;SDS011;60912;48.968;10.124;2023-08-08T07:00:16;3.88;;;1.13;;
71639;SDS011;60912;48.968;10.124;2023-08-08T07:02:48;5.35;;;1.13;;
71639;SDS011;60912;48.968;10.124;2023-08-08T07:05:16;3.78;;;1.20;;
71639;SDS011;60912;48.968;10.124;2023-08-08T07:07:52;4.03;;;1.20;;
71639;SDS011;60912;48.968;10.124;2023-08-08T07:10:46;2.80;;;1.10;;
71639;SDS011;60912;48.968;10.124;2023-08-08T07:13:19;4.47;;;1.30;;
71639;SDS011;60912;48.968;10.124;2023-08-08T07:15:50;3.08;;;1.27;;
71639;SDS011;60912;48.968;10.124;2023-08-08T07:21:16;4.85;;;1.23;;
71639;SDS011;60912;48.968;10.124;2023-08-08T07:23:56;3.47;;;1.27;;
71639;SDS011;60912;48.968;10.124;2023-08-08T07:30:06;3.05;;;1.27;;
71639;SDS011;60912;48.968;10.124;2023-08-08T07:32:40;4.85;;;1.33;;
71639;SDS011;60912;48.968;10.124;2023-08-08T07:35:38;3.83;;;1.27;;
71639;SDS011;60912;48.968;10.124;2023-08-08T07:38:09;3.87;;;1.40;;
71639;SDS011;60912;48.968;10.124;2023-08-08T07:40:51;3.03;;;1.15;;
71639;SDS011;60912;48.968;10.124;2023-08-08T07:43:33;2.90;;;1.30;;
71639;SDS011;60912;48.968;10.124;2023-08-08T07:46:12;3.38;;;1.20;;
71639;SDS011;60912;48.968;10.124;2023-08-08T07:48:49;3.85;;;1.10;;
71639;SDS011;60912;48.968;10.124;2023-08-08T07:51:31;4.97;;;1.10;;
71639;SDS011;60912;48.968;10.124;2023-08-08T07:54:08;3.58;;;1.30;;
71639;SDS011;60912;48.968;10.124;2023-08-08T07:56:37;3.22;;;1.20;;
71639;SDS011;60912;48.968;10.124;2023-08-08T07:59:07;2.75;;;1.10;;
71639;SDS011;60912;48.968;10.124;2023-08-08T08:01:41;4.53;;;1.10;;
71639;SDS011;60912;48.968;10.124;2023-08-08T08:04:12;3.83;;;1.00;;
71639;SDS011;60912;48.968;10.124;2023-08-08T08:06:46;3.10;;;1.20;;
71639;SDS011;60912;48.968;10.124;2023-08-08T08:11:57;3.40;;;1.20;;
71639;SDS011;60912;48.968;10.124;2023-08-08T08:14:27;3.25;;;1.30;;
71639;SDS011;60912;48.968;10.124;2023-08-08T08:16:59;4.00;;;1.20;;
71639;SDS011;60912;48.968;10.124;2023-08-08T08:19:46;4.65;;;1.30;;
71639;SDS011;60912;48.968;10.124;2023-08-08T08:22:23;3.50;;;1.10;;
71639;SDS011;60912;48.968;10.124;2023-08-08T08:24:57;2.67;;;1.00;;
71639;SDS011;60912;48.968;10.124;2023-08-08T08:27:23;3.58;;;1.10;;
71639;SDS011;60912;48.968;10.124;2023-08-08T08:30:19;2.63;;;1.08;;
71639;SDS011;60912;48.968;10.124;2023-08-08T08:32:45;4.07;;;1.20;;
71639;SDS011;60912;48.968;10.124;2023-08-08T08:35:13;4.38;;;1.10;;
71639;SDS011;60912;48.968;10.124;2023-08-08T08:37:42;3.13;;;1.07;;
71639;SDS011;60912;48.968;10.124;2023-08-08T08:40:37;4.20;;;1.30;;
71639;SDS011;60912;48.968;10.124;2023-08-08T08:43:30;3.10;;;1.17;;
71639;SDS011;60912;48.968;10.124;2023-08-08T08:49:07;3.03;;;1.27;;
71639;SDS011;60912;48.968;10.124;2023-08-08T08:52:02;3.93;;;1.30;;
71639;SDS011;60912;48.968;10.124;2023-08-08T08:54:40;4.15;;;1.35;;
71639;SDS011;60912;48.968;10.124;2023-08-08T08:57:19;3.22;;;1.10;;
71639;SDS011;60912;48.968;10.124;2023-08-08T09:02:31;3.50;;;1.20;;
71639;SDS011;60912;48.968;10.124;2023-08-08T09:05:10;2.13;;;0.97;;
71639;SDS011;60912;48.968;10.124;2023-08-08T09:07:48;3.78;;;1.20;;
71639;SDS011;60912;48.968;10.124;2023-08-08T09:10:35;5.50;;;1.20;;
71639;SDS011;60912;48.968;10.124;2023-08-08T09:13:22;3.15;;;1.10;;
71639;SDS011;60912;48.968;10.124;2023-08-08T09:16:17;3.47;;;1.20;;
71639;SDS011;60912;48.968;10.124;2023-08-08T09:18:43;3.23;;;1.10;;
71639;SDS011;60912;48.968;10.124;2023-08-08T09:21:14;2.97;;;1.20;;
71639;SDS011;60912;48.968;10.124;2023-08-08T09:23:55;3.53;;;1.13;;
71639;SDS011;60912;48.968;10.124;2023-08-08T09:26:26;4.22;;;1.17;;
71639;SDS011;60912;48.968;10.124;2023-08-08T09:29:02;3.35;;;1.27;;
71639;SDS011;60912;48.968;10.124;2023-08-08T09:32:08;3.67;;;1.20;;
71639;SDS011;60912;48.968;10.124;2023-08-08T09:34:42;3.63;;;1.10;;
71639;SDS011;60912;48.968;10.124;2023-08-08T09:37:12;2.50;;;1.10;;
71639;SDS011;60912;48.968;10.124;2023-08-08T09:39:55;3.08;;;1.10;;
71639;SDS011;60912;48.968;10.124;2023-08-08T09:42:43;3.90;;;1.17;;
71639;SDS011;60912;48.968;10.124;2023-08-08T09:45:34;3.30;;;1.05;;
71639;SDS011;60912;48.968;10.124;2023-08-08T09:48:10;2.50;;;1.05;;
71639;SDS011;60912;48.968;10.124;2023-08-08T09:51:05;2.58;;;1.05;;
71639;SDS011;60912;48.968;10.124;2023-08-08T09:53:42;5.80;;;1.10;;
71639;SDS011;60912;48.968;10.124;2023-08-08T09:56:14;6.63;;;1.17;;
71639;SDS011;60912;48.968;10.124;2023-08-08T09:58:45;4.07;;;1.30;;
71639;SDS011;60912;48.968;10.124;2023-08-08T10:01:37;3.95;;;1.30;;
71639;SDS011;60912;48.968;10.124;2023-08-08T10:04:21;3.35;;;1.10;;
71639;SDS011;60912;48.968;10.124;2023-08-08T10:06:51;3.40;;;1.37;;
71639;SDS011;60912;48.968;10.124;2023-08-08T10:09:20;2.90;;;1.20;;
71639;SDS011;60912;48.968;10.124;2023-08-08T10:12:02;2.67;;;1.20;;
71639;SDS011;60912;48.968;10.124;2023-08-08T10:14:49;3.15;;;1.17;;
71639;SDS011;60912;48.968;10.124;2023-08-08T10:17:24;2.40;;;1.00;;
71639;SDS011;60912;48.968;10.124;2023-08-08T10:20:19;3.40;;;1.37;;
71639;SDS011;60912;48.968;10.124;2023-08-08T10:23:01;3.40;;;1.20;;
71639;SDS011;60912;48.968;10.124;2023-08-08T10:28:27;4.70;;;1.10;;
71639;SDS011;60912;48.968;10.124;2023-08-08T10:31:05;2.53;;;1.05;;
71639;SDS011;60912;48.968;10.124;2023-08-08T10:33:45;2.90;;;1.00;;
71639;SDS011;60912;48.968;10.124;2023-08-08T10:39:31;2.40;;;1.08;;
71639;SDS011;60912;48.968;10.124;2023-08-08T10:42:23;3.65;;;1.20;;
71639;SDS011;60912;48.968;10.124;2023-08-08T10:45:09;2.67;;;1.17;;
71639;SDS011;60912;48.968;10.124;2023-08-08T10:47:49;2.90;;;1.00;;
71639;SDS011;60912;48.968;10.124;2023-08-08T10:53:33;3.85;;;1.52;;
71639;SDS011;60912;48.968;10.124;2023-08-08T10:56:14;4.22;;;1.08;;
71639;SDS011;60912;48.968;10.124;2023-08-08T11:01:25;2.43;;;1.10;;
71639;SDS011;60912;48.968;10.124;2023-08-08T11:06:53;4.70;;;1.30;;
71639;SDS011;60912;48.968;10.124;2023-08-08T11:09:31;3.58;;;1.23;;
71639;SDS011;60912;48.968;10.124;2023-08-08T11:12:20;2.42;;;1.00;;
71639;SDS011;60912;48.968;10.124;2023-08-08T11:18:08;2.67;;;1.20;;
71639;SDS011;60912;48.968;10.124;2023-08-08T11:20:53;3.15;;;1.27;;
71639;SDS011;60912;48.968;10.124;2023-08-08T11:23:24;2.25;;;1.10;;
71639;SDS011;60912;48.968;10.124;2023-08-08T11:25:50;3.35;;;1.10;;
71639;SDS011;60912;48.968;10.124;2023-08-08T11:28:21;2.63;;;1.10;;
71639;SDS011;60912;48.968;10.124;2023-08-08T11:31:02;2.80;;;1.10;;
71639;SDS011;60912;48.968;10.124;2023-08-08T11:33:31;3.08;;;1.17;;
71639;SDS011;60912;48.968;10.124;2023-08-08T11:35:59;2.88;;;1.00;;
71639;SDS011;60912;48.968;10.124;2023-08-08T11:38:28;2.30;;;1.00;;
71639;SDS011;60912;48.968;10.124;2023-08-08T11:41:07;2.83;;;1.20;;
71639;SDS011;60912;48.968;10.124;2023-08-08T11:46:46;3.10;;;1.20;;
71639;SDS011;60912;48.968;10.124;2023-08-08T11:49:17;2.50;;;1.05;;
71639;SDS011;60912;48.968;10.124;2023-08-08T11:51:53;2.92;;;1.00;;
71639;SDS011;60912;48.968;10.124;2023-08-08T11:55:08;4.43;;;1.20;;
71639;SDS011;60912;48.968;10.124;2023-08-08T11:58:00;4.30;;;1.30;;
71639;SDS011;60912;48.968;10.124;2023-08-08T12:03:58;3.15;;;1.27;;
71639;SDS011;60912;48.968;10.124;2023-08-08T12:06:44;2.83;;;1.10;;
71639;SDS011;60912;48.968;10.124;2023-08-08T12:09:36;4.50;;;1.10;;
71639;SDS011;60912;48.968;10.124;2023-08-08T12:12:24;2.83;;;1.10;;
71639;SDS011;60912;48.968;10.124;2023-08-08T12:15:34;6.05;;;1.10;;
71639;SDS011;60912;48.968;10.124;2023-08-08T12:21:20;2.55;;;0.88;;
71639;SDS011;60912;48.968;10.124;2023-08-08T12:24:06;2.47;;;0.90;;
71639;SDS011;60912;48.968;10.124;2023-08-08T12:26:35;3.50;;;1.10;;
71639;SDS011;60912;48.968;10.124;2023-08-08T12:29:39;3.80;;;1.10;;
71639;SDS011;60912;48.968;10.124;2023-08-08T12:32:37;3.45;;;0.98;;
71639;SDS011;60912;48.968;10.124;2023-08-08T12:35:15;2.83;;;1.13;;
71639;SDS011;60912;48.968;10.124;2023-08-08T12:38:03;3.13;;;1.00;;
71639;SDS011;60912;48.968;10.124;2023-08-08T12:41:18;4.10;;;1.20;;
71639;SDS011;60912;48.968;10.124;2023-08-08T12:43:56;5.10;;;1.20;;
71639;SDS011;60912;48.968;10.124;2023-08-08T12:46:33;3.97;;;1.05;;
71639;SDS011;60912;48.968;10.124;2023-08-08T12:49:31;2.92;;;1.10;;
71639;SDS011;60912;48.968;10.124;2023-08-08T12:52:20;3.07;;;1.10;;
71639;SDS011;60912;48.968;10.124;2023-08-08T12:57:47;2.20;;;0.90;;
71639;SDS011;60912;48.968;10.124;2023-08-08T13:03:31;4.57;;;1.10;;
71639;SDS011;60912;48.968;10.124;2023-08-08T13:09:36;3.35;;;1.08;;
71639;SDS011;60912;48.968;10.124;2023-08-08T13:12:08;4.25;;;0.98;;
71639;SDS011;60912;48.968;10.124;2023-08-08T13:15:13;3.38;;;1.00;;
71639;SDS011;60912;48.968;10.124;2023-08-08T13:21:19;2.27;;;0.90;;
71639;SDS011;60912;48.968;10.124;2023-08-08T13:24:08;4.63;;;0.98;;
71639;SDS011;60912;48.968;10.124;2023-08-08T13:26:40;2.40;;;0.88;;
71639;SDS011;60912;48.968;10.124;2023-08-08T13:29:14;2.63;;;1.13;;
71639;SDS011;60912;48.968;10.124;2023-08-08T13:32:05;4.65;;;1.00;;
71639;SDS011;60912;48.968;10.124;2023-08-08T13:34:51;3.43;;;0.90;;
71639;SDS011;60912;48.968;10.124;2023-08-08T13:41:15;3.03;;;1.10;;
71639;SDS011;60912;48.968;10.124;2023-08-08T13:48:28;3.08;;;1.20;;
71639;SDS011;60912;48.968;10.124;2023-08-08T14:08:51;2.63;;;1.10;;
71639;SDS011;60912;48.968;10.124;2023-08-08T14:11:58;2.80;;;1.10;;
71639;SDS011;60912;48.968;10.124;2023-08-08T14:14:29;4.07;;;1.10;;
71639;SDS011;60912;48.968;10.124;2023-08-08T14:20:07;3.00;;;1.00;;
71639;SDS011;60912;48.968;10.124;2023-08-08T14:29:00;2.83;;;1.10;;
71639;SDS011;60912;48.968;10.124;2023-08-08T14:37:49;2.27;;;1.07;;
71639;SDS011;60912;48.968;10.124;2023-08-08T14:41:13;2.45;;;1.00;;
71639;SDS011;60912;48.968;10.124;2023-08-08T15:01:38;2.45;;;1.08;;
71639;SDS011;60912;48.968;10.124;2023-08-08T15:04:32;3.33;;;0.85;;
71639;SDS011;60912;48.968;10.124;2023-08-08T15:07:28;2.90;;;1.05;;
71639;SDS011;60912;48.968;10.124;2023-08-08T15:16:58;3.70;;;0.90;;
71639;SDS011;60912;48.968;10.124;2023-08-08T15:19:33;2.88;;;1.10;;
71639;SDS011;60912;48.968;10.124;2023-08-08T15:25:26;4.60;;;1.10;;
71639;SDS011;60912;48.968;10.124;2023-08-08T15:28:22;4.43;;;1.13;;
71639;SDS011;60912;48.968;10.124;2023-08-08T15:31:10;2.33;;;0.98;;
71639;SDS011;60912;48.968;10.124;2023-08-08T15:33:48;2.20;;;0.82;;
71639;SDS011;60912;48.968;10.124;2023-08-08T15:39:36;2.40;;;1.10;;
71639;SDS011;60912;48.968;10.124;2023-08-08T15:42:22;5.13;;;1.20;;
71639;SDS011;60912;48.968;10.124;2023-08-08T15:47:31;2.95;;;1.00;;
71639;SDS011;60912;48.968;10.124;2023-08-08T15:50:02;7.65;;;1.25;;
71639;SDS011;60912;48.968;10.124;2023-08-08T15:52:28;3.87;;;1.00;;
71639;SDS011;60912;48.968;10.124;2023-08-08T15:55:49;7.30;;;1.10;;
71639;SDS011;60912;48.968;10.124;2023-08-08T15:58:21;3.67;;;0.98;;
71639;SDS011;60912;48.968;10.124;2023-08-08T16:01:25;3.85;;;1.15;;
71639;SDS011;60912;48.968;10.124;2023-08-08T16:09:51;3.00;;;1.00;;
71639;SDS011;60912;48.968;10.124;2023-08-08T16:12:28;3.90;;;1.20;;
71639;SDS011;60912;48.968;10.124;2023-08-08T16:15:00;2.97;;;1.10;;
71639;SDS011;60912;48.968;10.124;2023-08-08T16:17:38;3.08;;;1.20;;
71639;SDS011;60912;48.968;10.124;2023-08-08T16:20:09;3.23;;;1.00;;
71639;SDS011;60912;48.968;10.124;2023-08-08T16:22:35;3.05;;;1.10;;
71639;SDS011;60912;48.968;10.124;2023-08-08T16:25:19;3.05;;;1.20;;
71639;SDS011;60912;48.968;10.124;2023-08-08T16:28:01;3.10;;;0.93;;
71639;SDS011;60912;48.968;10.124;2023-08-08T16:30:42;2.60;;;1.00;;
71639;SDS011;60912;48.968;10.124;2023-08-08T16:33:20;3.00;;;1.00;;
71639;SDS011;60912;48.968;10.124;2023-08-08T16:35:59;2.58;;;1.05;;
71639;SDS011;60912;48.968;10.124;2023-08-08T16:38:27;3.60;;;1.23;;
71639;SDS011;60912;48.968;10.124;2023-08-08T16:41:09;3.22;;;1.27;;
71639;SDS011;60912;48.968;10.124;2023-08-08T16:43:35;2.47;;;1.10;;
71639;SDS011;60912;48.968;10.124;2023-08-08T16:46:04;3.03;;;1.30;;
71639;SDS011;60912;48.968;10.124;2023-08-08T16:48:41;3.30;;;1.10;;
71639;SDS011;60912;48.968;10.124;2023-08-08T16:51:42;3.35;;;1.08;;
71639;SDS011;60912;48.968;10.124;2023-08-08T16:54:16;4.65;;;1.55;;
71639;SDS011;60912;48.968;10.124;2023-08-08T16:56:44;3.95;;;1.42;;
71639;SDS011;60912;48.968;10.124;2023-08-08T16:59:32;3.03;;;1.00;;
71639;SDS011;60912;48.968;10.124;2023-08-08T17:02:11;2.35;;;1.00;;
71639;SDS011;60912;48.968;10.124;2023-08-08T17:04:51;4.53;;;1.27;;
71639;SDS011;60912;48.968;10.124;2023-08-08T17:07:19;2.30;;;1.08;;
71639;SDS011;60912;48.968;10.124;2023-08-08T17:09:57;3.75;;;1.33;;
71639;SDS011;60912;48.968;10.124;2023-08-08T17:12:26;3.33;;;1.27;;
71639;SDS011;60912;48.968;10.124;2023-08-08T17:17:30;3.92;;;1.20;;
71639;SDS011;60912;48.968;10.124;2023-08-08T17:19:55;3.23;;;1.10;;
71639;SDS011;60912;48.968;10.124;2023-08-08T17:22:20;5.13;;;1.10;;
71639;SDS011;60912;48.968;10.124;2023-08-08T17:24:46;3.38;;;1.25;;
71639;SDS011;60912;48.968;10.124;2023-08-08T17:27:11;4.03;;;1.30;;
71639;SDS011;60912;48.968;10.124;2023-08-08T17:29:37;4.20;;;1.23;;
71639;SDS011;60912;48.968;10.124;2023-08-08T17:32:02;2.07;;;0.87;;
71639;SDS011;60912;48.968;10.124;2023-08-08T17:34:28;5.07;;;1.17;;
71639;SDS011;60912;48.968;10.124;2023-08-08T17:36:53;3.27;;;1.13;;
71639;SDS011;60912;48.968;10.124;2023-08-08T17:39:19;7.63;;;1.30;;
71639;SDS011;60912;48.968;10.124;2023-08-08T17:41:44;4.70;;;1.10;;
71639;SDS011;60912;48.968;10.124;2023-08-08T17:44:09;2.97;;;1.00;;